Joplin, MO

4:13 PM CST on January 19, 2017 (GMT -0600)
Ohio Ave | | Change Station
Active Advisory: Dense Fog Advisory

Elev 1020 ft 37.07 °N, 94.50 °W | Updated 14 seconds ago

Overcast
Overcast
55.9 °F
Feels Like 55.9 °F
N
1.0
Wind Variable Wind from SSW

Today
High -- | Low -- °F
--% Chance of Precip.
Yesterday
High -- | Low -- °F
Precip. -- in
Pressure 29.65 in
Visibility 10.0 miles
Clouds Overcast 1900 ft
Dew Point 49 °F
Humidity 79%
Rainfall 0.00 in
Snow Depth Not available.
7:28 AM 5:29 PM
Waning Gibbous, 50% visible
METAR KJLN 192153Z 17008KT 10SM OVC019 12/09 A2965 RMK AO2 SLP040 T01220089
Pressure 29.65 in
Visibility 10.0 miles
Clouds Overcast 1900 ft
Dew Point 49 °F
Humidity 79%
Rainfall 0.00 in
Snow Depth Not available.
7:28 AM 5:29 PM
Waning Gibbous, 50% visible
METAR KJLN 192153Z 17008KT 10SM OVC019 12/09 A2965 RMK AO2 SLP040 T01220089

Get Your Daily Forecast Email!

Thanks for signing up!

Be on the lookout for a verification email in your inbox.

You'll start receiving the daily forecast at 8 AM.

×

10-Day Weather Forecast

Almanac

Astronomy

Jan. 19, 2017 Rise Set
Actual Time
Civil Twilight
Nautical Twilight
Astronomical Twilight
Moon
Length of Visible Light
Length of Day
Tomorrow will be .
, % of the Moon is Illuminated

Today's Extremes

State Highs State Lows

Community

WunderPhotos

Upload Photos

1,962,540 photos uploaded!

WunderBlog® & News

Nearby

Air Quality

  Air Quality AQ Index Pollutant
Not available.

Snow Depth

Station Depth Elevation

Earthquake Activity

City Distance Mag. Time & Date
Minimum magnitude displayed is 2.5.

Coastal Water Temperatures

Place Temperature

Stations

Nearby Weather Stations

Station Location Temp. Windchill Dew Point Humidity Wind Precip. Elev Updated Type
                   

Watches & Warnings

Dense Fog Advisory
Issued: 2:57 PM CST Jan. 19, 2017 – National Weather Service

... Dense fog advisory in effect from midnight tonight to 9 am CST
Friday...

The National Weather Service in Springfield has issued a dense
fog advisory... which is in effect from midnight tonight to 9 am
CST Friday.

* Visibility... frequently below a quarter of a mile over a
widespread area late this evening into early Friday morning.

* Impacts... travel will be impacted by greatly reduced visibility.

Precautionary/preparedness actions...

A dense fog advisory means visibilities will frequently be
reduced to less than one quarter mile. If driving... slow down...
use your headlights... and leave plenty of distance ahead of you.



Dsa